Time;durP1;ratioP1;P1;durP2;ratioP2;P2;SDS_P1;SDS_P2;PMS_P1;PMS_P2;Temp;Humidity;BMP_temperature;BMP_pressure;BME280_temperature;BME280_humidity;BME280_pressure;Samples;Min_cycle;Max_cycle;Signal;HPM_P1;HPM_P2
2022/01/13 00:01:12;;;;;;;26.67;18.33;;;;;;;;;;4959753;28;20038;-72
2022/01/13 00:03:45;;;;;;;27.80;17.75;;;;;;;;;;4979213;28;20042;-72
2022/01/13 00:06:20;;;;;;;24.98;16.42;;;;;;;;;;4990568;28;20046;-72
2022/01/13 00:08:49;;;;;;;25.75;17.48;;;;;;;;;;4983032;28;20038;-72
2022/01/13 00:11:18;;;;;;;26.80;18.73;;;;;;;;;;4979965;28;20081;-72
2022/01/13 00:14:06;;;;;;;26.90;18.55;;;;;;;;;;4965012;28;20417;-72
2022/01/13 00:19:20;;;;;;;34.70;20.85;;;;;;;;;;4990480;28;20046;-72
2022/01/13 00:21:52;;;;;;;31.58;19.60;;;;;;;;;;4997088;28;20478;-72
2022/01/13 00:24:20;;;;;;;24.88;16.50;;;;;;;;;;4994349;28;20503;-72
2022/01/13 00:26:48;;;;;;;30.23;20.20;;;;;;;;;;4988946;28;20081;-72
2022/01/13 00:29:21;;;;;;;26.05;17.60;;;;;;;;;;4992854;28;20045;-72
2022/01/13 00:31:48;;;;;;;30.13;19.95;;;;;;;;;;4972736;28;20141;-73
2022/01/13 00:34:15;;;;;;;30.60;20.35;;;;;;;;;;4987321;28;20121;-73
2022/01/13 00:36:43;;;;;;;29.35;19.23;;;;;;;;;;4986047;28;20896;-73
2022/01/13 00:39:12;;;;;;;28.17;19.83;;;;;;;;;;4985320;28;20046;-73
2022/01/13 00:41:39;;;;;;;29.60;20.95;;;;;;;;;;4981343;28;20334;-72
2022/01/13 00:44:08;;;;;;;29.13;20.98;;;;;;;;;;4983942;28;20149;-73
2022/01/13 00:46:42;;;;;;;31.00;21.77;;;;;;;;;;4964227;28;20053;-73
2022/01/13 00:49:11;;;;;;;26.58;19.15;;;;;;;;;;4983690;28;20106;-73
2022/01/13 00:51:39;;;;;;;26.63;19.85;;;;;;;;;;4982899;28;20046;-73
2022/01/13 00:54:07;;;;;;;29.70;20.58;;;;;;;;;;4982129;28;20080;-73
2022/01/13 00:56:36;;;;;;;32.03;20.85;;;;;;;;;;4983744;28;20046;-73
2022/01/13 00:59:07;;;;;;;26.98;17.80;;;;;;;;;;4982264;28;20490;-72
2022/01/13 01:01:35;;;;;;;28.17;19.67;;;;;;;;;;4981824;28;20133;-72
2022/01/13 01:04:04;;;;;;;34.60;22.60;;;;;;;;;;4982252;28;20053;-72
2022/01/13 01:06:31;;;;;;;35.08;22.65;;;;;;;;;;4982174;28;20471;-72
2022/01/13 01:08:59;;;;;;;33.38;21.45;;;;;;;;;;4996117;28;20226;-72
2022/01/13 01:11:27;;;;;;;29.25;19.38;;;;;;;;;;4982729;28;20073;-73
2022/01/13 01:13:55;;;;;;;30.88;21.75;;;;;;;;;;4981991;28;20088;-72
2022/01/13 01:16:23;;;;;;;31.50;19.83;;;;;;;;;;4981627;28;20054;-72
2022/01/13 01:19:02;;;;;;;29.80;19.98;;;;;;;;;;4985630;28;20097;-72
2022/01/13 01:29:19;;;;;;;27.17;18.65;;;;;;;;;;4982291;28;20042;-72
2022/01/13 01:31:50;;;;;;;29.75;18.13;;;;;;;;;;4969035;28;20561;-72
2022/01/13 01:37:13;;;;;;;31.58;20.23;;;;;;;;;;4984247;28;20078;-72
2022/01/13 01:39:40;;;;;;;33.90;21.05;;;;;;;;;;5001186;28;20046;-72
2022/01/13 01:42:08;;;;;;;30.92;19.35;;;;;;;;;;4986701;28;20534;-72
2022/01/13 01:44:40;;;;;;;31.13;20.35;;;;;;;;;;4969648;28;20125;-72
2022/01/13 01:47:09;;;;;;;;;;;;;;;;;;4986431;28;20117;-72
2022/01/13 01:49:40;;;;;;;28.33;18.85;;;;;;;;;;4991830;28;19933;-71
2022/01/13 01:52:08;;;;;;;27.13;19.55;;;;;;;;;;4998530;28;20046;-72
2022/01/13 01:54:36;;;;;;;26.95;16.27;;;;;;;;;;4993976;28;20070;-72
2022/01/13 01:57:04;;;;;;;28.00;18.98;;;;;;;;;;4987068;28;20077;-72
2022/01/13 01:59:34;;;;;;;29.30;18.17;;;;;;;;;;4985507;28;20046;-72
2022/01/13 02:02:02;;;;;;;27.05;18.35;;;;;;;;;;4984472;28;20300;-72
2022/01/13 02:04:30;;;;;;;27.25;18.92;;;;;;;;;;4986953;28;20450;-72
2022/01/13 02:07:02;;;;;;;29.98;21.48;;;;;;;;;;4986419;28;20069;-72
2022/01/13 02:09:30;;;;;;;28.73;20.55;;;;;;;;;;4983606;28;20700;-72
2022/01/13 02:12:04;;;;;;;28.67;19.60;;;;;;;;;;4985293;28;20061;-72
2022/01/13 02:14:35;;;;;;;26.77;18.75;;;;;;;;;;4985071;28;20104;-72
2022/01/13 02:17:07;;;;;;;32.17;21.60;;;;;;;;;;4984257;28;20053;-72
2022/01/13 02:19:39;;;;;;;25.25;18.27;;;;;;;;;;4985251;28;20309;-72
2022/01/13 02:22:07;;;;;;;28.35;19.35;;;;;;;;;;4984756;28;20038;-72
2022/01/13 02:24:35;;;;;;;25.60;18.23;;;;;;;;;;4985483;28;20173;-72
2022/01/13 02:27:03;;;;;;;28.45;18.33;;;;;;;;;;4982889;28;20121;-72
2022/01/13 02:29:31;;;;;;;25.42;17.85;;;;;;;;;;4982893;28;20153;-72
2022/01/13 02:31:59;;;;;;;28.85;18.75;;;;;;;;;;4985149;28;20466;-72
2022/01/13 02:34:26;;;;;;;27.20;19.40;;;;;;;;;;4985402;28;20061;-72
2022/01/13 02:36:54;;;;;;;26.92;18.20;;;;;;;;;;4985367;28;20325;-72
2022/01/13 02:39:22;;;;;;;26.67;18.80;;;;;;;;;;4983998;28;20134;-72
2022/01/13 02:41:50;;;;;;;25.20;17.30;;;;;;;;;;4984984;28;20069;-73
2022/01/13 02:44:21;;;;;;;26.02;17.45;;;;;;;;;;4967651;28;20124;-71
2022/01/13 02:49:21;;;;;;;27.63;19.08;;;;;;;;;;4986471;28;20070;-72
2022/01/13 02:51:52;;;;;;;27.48;17.88;;;;;;;;;;4984741;28;20124;-72
2022/01/13 02:54:20;;;;;;;25.50;17.23;;;;;;;;;;4985491;28;20046;-72
2022/01/13 02:56:48;;;;;;;27.25;19.98;;;;;;;;;;4985111;28;20484;-72
2022/01/13 02:59:15;;;;;;;25.15;16.33;;;;;;;;;;4985799;28;20450;-72
2022/01/13 03:01:43;;;;;;;26.17;17.20;;;;;;;;;;4983549;28;20050;-72
2022/01/13 03:04:11;;;;;;;26.88;18.38;;;;;;;;;;4983335;28;20068;-72
2022/01/13 03:06:40;;;;;;;29.27;19.58;;;;;;;;;;4985532;28;20097;-73
2022/01/13 03:09:09;;;;;;;26.52;18.95;;;;;;;;;;4980470;28;20307;-73
2022/01/13 03:11:37;;;;;;;25.17;17.58;;;;;;;;;;4971849;28;20129;-72
2022/01/13 03:14:10;;;;;;;33.47;20.67;;;;;;;;;;4973050;28;20046;-72
2022/01/13 03:16:38;;;;;;;28.95;19.45;;;;;;;;;;4984232;28;20050;-72
2022/01/13 03:19:06;;;;;;;29.20;19.55;;;;;;;;;;4983180;28;20136;-72
2022/01/13 03:21:33;;;;;;;29.30;20.15;;;;;;;;;;4985188;28;20557;-73
2022/01/13 03:24:04;;;;;;;29.42;19.30;;;;;;;;;;4982589;28;20077;-72
2022/01/13 03:26:33;;;;;;;28.13;19.33;;;;;;;;;;4982789;28;20173;-72
2022/01/13 03:29:15;;;;;;;31.77;21.20;;;;;;;;;;4983666;28;20074;-72
2022/01/13 03:31:46;;;;;;;28.50;18.92;;;;;;;;;;4982628;28;20061;-72
2022/01/13 03:34:14;;;;;;;30.75;21.02;;;;;;;;;;4986555;28;20074;-72
2022/01/13 03:36:42;;;;;;;27.85;20.10;;;;;;;;;;4980326;28;20054;-72
2022/01/13 03:39:10;;;;;;;26.83;18.30;;;;;;;;;;4983165;28;20042;-72
2022/01/13 03:41:38;;;;;;;30.75;21.15;;;;;;;;;;4982317;28;20050;-72
2022/01/13 03:44:07;;;;;;;29.75;20.67;;;;;;;;;;4982129;28;20097;-72
2022/01/13 03:46:37;;;;;;;30.90;19.48;;;;;;;;;;4983452;28;20039;-72
2022/01/13 03:49:07;;;;;;;27.05;18.98;;;;;;;;;;4984258;28;20041;-72
2022/01/13 03:52:04;;;;;;;26.50;18.45;;;;;;;;;;4983056;28;20085;-72
2022/01/13 03:54:32;;;;;;;24.90;18.60;;;;;;;;;;4983458;28;20085;-72
2022/01/13 03:57:22;;;;;;;29.75;20.73;;;;;;;;;;4983386;28;20506;-72
2022/01/13 04:00:08;;;;;;;26.35;18.58;;;;;;;;;;4983635;28;20113;-72
2022/01/13 04:02:40;;;;;;;29.83;21.33;;;;;;;;;;4979353;28;20073;-72
2022/01/13 04:05:07;;;;;;;26.23;18.73;;;;;;;;;;4962564;28;20061;-72
2022/01/13 04:07:35;;;;;;;29.52;21.40;;;;;;;;;;4983361;28;20058;-72
2022/01/13 04:10:04;;;;;;;30.73;20.55;;;;;;;;;;4982375;28;20134;-71
2022/01/13 04:12:31;;;;;;;33.15;21.63;;;;;;;;;;4964356;28;20046;-72
2022/01/13 04:15:02;;;;;;;28.73;18.17;;;;;;;;;;4966773;28;20050;-72
2022/01/13 04:17:30;;;;;;;31.42;20.88;;;;;;;;;;4982285;28;20457;-72
2022/01/13 04:19:57;;;;;;;39.05;21.77;;;;;;;;;;4982679;28;20177;-72
2022/01/13 04:22:25;;;;;;;26.73;19.92;;;;;;;;;;4969263;28;20129;-72
2022/01/13 04:24:53;;;;;;;29.35;19.48;;;;;;;;;;4974953;28;20077;-72
2022/01/13 04:27:22;;;;;;;28.33;20.25;;;;;;;;;;4978952;28;20069;-72
2022/01/13 04:30:00;;;;;;;31.63;21.17;;;;;;;;;;4979551;28;20050;-72
2022/01/13 04:32:27;;;;;;;26.52;18.15;;;;;;;;;;4979446;28;20557;-72
2022/01/13 04:34:55;;;;;;;30.95;21.60;;;;;;;;;;4982431;28;20068;-73
2022/01/13 04:37:22;;;;;;;32.88;21.80;;;;;;;;;;4983572;28;20096;-74
2022/01/13 04:39:50;;;;;;;31.05;20.08;;;;;;;;;;4984648;28;20418;-73
2022/01/13 04:42:17;;;;;;;33.60;22.90;;;;;;;;;;4976978;28;20133;-73
2022/01/13 04:44:45;;;;;;;30.67;21.10;;;;;;;;;;4974951;28;20046;-73
2022/01/13 04:47:12;;;;;;;31.98;21.25;;;;;;;;;;4968428;28;20130;-73
2022/01/13 04:49:39;;;;;;;32.63;20.40;;;;;;;;;;4977560;28;20719;-73
2022/01/13 04:52:07;;;;;;;29.48;19.83;;;;;;;;;;4984864;28;20074;-73
2022/01/13 04:54:34;;;;;;;29.60;21.35;;;;;;;;;;4987337;28;20053;-73
2022/01/13 04:57:16;;;;;;;27.85;17.65;;;;;;;;;;4988047;28;20078;-73
2022/01/13 04:59:44;;;;;;;32.60;21.23;;;;;;;;;;4996278;28;20077;-73
2022/01/13 05:02:11;;;;;;;31.13;21.05;;;;;;;;;;4980331;28;20475;-73
2022/01/13 05:04:40;;;;;;;30.95;22.08;;;;;;;;;;4976626;28;20141;-73
2022/01/13 05:07:07;;;;;;;29.42;20.92;;;;;;;;;;4996307;28;20053;-73
2022/01/13 05:09:34;;;;;;;34.85;22.63;;;;;;;;;;4988132;28;20136;-73
2022/01/13 05:12:02;;;;;;;28.95;20.58;;;;;;;;;;4989666;28;20050;-73
2022/01/13 05:14:31;;;;;;;30.67;20.92;;;;;;;;;;4974512;28;20235;-73
2022/01/13 05:17:06;;;;;;;28.98;19.77;;;;;;;;;;4989122;28;20050;-73
2022/01/13 05:19:42;;;;;;;34.15;22.95;;;;;;;;;;4985973;28;20100;-73
2022/01/13 05:24:46;;;;;;;32.30;22.48;;;;;;;;;;4985684;28;20047;-73
2022/01/13 05:27:14;;;;;;;29.02;20.67;;;;;;;;;;4987760;28;20093;-73
2022/01/13 05:29:41;;;;;;;32.20;21.70;;;;;;;;;;4984533;28;20570;-73
2022/01/13 05:32:08;;;;;;;27.83;19.15;;;;;;;;;;4970505;28;20115;-73
2022/01/13 05:34:36;;;;;;;35.30;21.23;;;;;;;;;;4959609;28;20565;-73
2022/01/13 05:37:11;;;;;;;36.13;24.80;;;;;;;;;;4952742;28;20116;-73
2022/01/13 05:39:38;;;;;;;35.83;23.17;;;;;;;;;;4964787;28;20206;-73
2022/01/13 05:42:06;;;;;;;38.40;23.08;;;;;;;;;;4973368;28;20050;-73
2022/01/13 05:44:38;;;;;;;32.90;21.95;;;;;;;;;;4968329;28;20052;-73
2022/01/13 05:47:06;;;;;;;36.88;24.17;;;;;;;;;;4984153;28;20042;-73
2022/01/13 05:49:34;;;;;;;33.95;22.58;;;;;;;;;;4984317;28;20097;-73
2022/01/13 05:52:01;;;;;;;35.38;23.30;;;;;;;;;;4983005;28;20494;-73
2022/01/13 05:54:29;;;;;;;37.42;23.30;;;;;;;;;;4984802;28;20149;-73
2022/01/13 05:56:56;;;;;;;38.92;24.48;;;;;;;;;;4984259;28;20054;-73
2022/01/13 05:59:23;;;;;;;41.85;25.33;;;;;;;;;;4966186;28;20134;-73
2022/01/13 06:01:51;;;;;;;32.97;22.23;;;;;;;;;;4976964;28;20042;-73
2022/01/13 06:04:19;;;;;;;35.78;22.85;;;;;;;;;;4980941;28;20034;-74
2022/01/13 06:06:47;;;;;;;30.67;21.60;;;;;;;;;;4978731;28;20403;-73
2022/01/13 06:09:14;;;;;;;31.90;20.70;;;;;;;;;;4974947;28;20054;-71
2022/01/13 06:11:55;;;;;;;36.10;23.27;;;;;;;;;;4979998;28;20039;-72
2022/01/13 06:14:22;;;;;;;38.67;24.08;;;;;;;;;;4977474;28;20046;-72
2022/01/13 06:16:50;;;;;;;34.40;22.23;;;;;;;;;;4984963;28;20046;-73
2022/01/13 06:19:17;;;;;;;37.17;22.13;;;;;;;;;;4982769;28;20138;-72
2022/01/13 06:21:45;;;;;;;31.50;20.27;;;;;;;;;;4989390;28;20046;-72
2022/01/13 06:24:12;;;;;;;30.30;19.98;;;;;;;;;;4987042;28;20517;-73
2022/01/13 06:26:40;;;;;;;31.30;20.42;;;;;;;;;;4975048;28;20034;-72
2022/01/13 06:29:07;;;;;;;30.60;20.73;;;;;;;;;;4987225;28;20061;-72
2022/01/13 06:31:35;;;;;;;31.73;21.15;;;;;;;;;;4975879;28;20039;-72
2022/01/13 06:34:02;;;;;;;31.42;20.92;;;;;;;;;;4987188;28;20447;-72
2022/01/13 06:36:31;;;;;;;36.00;22.33;;;;;;;;;;4988947;28;20050;-72
2022/01/13 06:38:59;;;;;;;34.70;22.73;;;;;;;;;;4979324;28;20101;-73
2022/01/13 06:41:26;;;;;;;30.73;20.70;;;;;;;;;;4989125;28;20401;-72
2022/01/13 06:43:54;;;;;;;32.72;21.52;;;;;;;;;;4989129;28;20081;-72
2022/01/13 06:46:22;;;;;;;34.35;22.98;;;;;;;;;;4988378;28;20129;-72
2022/01/13 06:48:50;;;;;;;30.98;21.23;;;;;;;;;;4988770;28;20045;-73
2022/01/13 06:51:17;;;;;;;34.55;23.15;;;;;;;;;;4989069;28;20512;-72
2022/01/13 06:53:45;;;;;;;32.70;21.40;;;;;;;;;;4990738;28;20076;-73
2022/01/13 06:56:12;;;;;;;30.25;20.13;;;;;;;;;;4989771;28;20074;-73
2022/01/13 06:58:43;;;;;;;37.30;22.23;;;;;;;;;;4970751;28;20078;-73
2022/01/13 07:01:11;;;;;;;38.40;22.05;;;;;;;;;;4987304;28;20050;-73
2022/01/13 07:03:39;;;;;;;36.10;23.30;;;;;;;;;;4987451;28;20121;-73
2022/01/13 07:06:06;;;;;;;35.42;20.55;;;;;;;;;;4985589;28;20065;-73
2022/01/13 07:08:34;;;;;;;37.03;23.08;;;;;;;;;;4987455;28;20181;-73
2022/01/13 07:11:03;;;;;;;38.70;23.20;;;;;;;;;;4989214;28;20038;-73
2022/01/13 07:13:34;;;;;;;36.03;22.55;;;;;;;;;;4989169;28;20042;-73
2022/01/13 07:16:02;;;;;;;35.90;23.40;;;;;;;;;;4989852;28;20039;-73
2022/01/13 07:18:38;;;;;;;33.25;22.98;;;;;;;;;;4990373;28;20046;-73
2022/01/13 07:21:16;;;;;;;38.60;22.05;;;;;;;;;;4989753;28;20069;-73
2022/01/13 07:23:44;;;;;;;34.13;22.25;;;;;;;;;;4988797;28;20042;-73
2022/01/13 07:26:11;;;;;;;39.45;24.85;;;;;;;;;;4990039;28;20046;-73
2022/01/13 07:28:39;;;;;;;36.63;22.92;;;;;;;;;;4990698;28;20034;-73
2022/01/13 07:31:06;;;;;;;34.53;22.67;;;;;;;;;;4988679;28;20034;-73
2022/01/13 07:33:33;;;;;;;39.58;23.65;;;;;;;;;;4991294;28;20129;-73
2022/01/13 07:36:01;;;;;;;32.63;21.13;;;;;;;;;;4989865;28;20035;-73
2022/01/13 07:38:28;;;;;;;39.70;23.42;;;;;;;;;;4990325;28;20039;-73
2022/01/13 07:40:56;;;;;;;39.47;24.90;;;;;;;;;;4991426;28;20034;-73
2022/01/13 07:43:25;;;;;;;40.13;24.40;;;;;;;;;;4990793;28;20049;-73
2022/01/13 07:45:53;;;;;;;37.60;23.98;;;;;;;;;;4990416;28;20038;-73
2022/01/13 07:48:21;;;;;;;39.90;24.95;;;;;;;;;;4990895;28;20034;-73
2022/01/13 07:50:49;;;;;;;31.58;20.50;;;;;;;;;;4990471;28;20541;-73
2022/01/13 07:53:16;;;;;;;33.15;20.45;;;;;;;;;;4989365;28;20498;-73
2022/01/13 07:55:44;;;;;;;38.22;21.38;;;;;;;;;;4990540;28;20073;-72
2022/01/13 07:58:11;;;;;;;35.00;22.85;;;;;;;;;;4989284;28;20046;-73
2022/01/13 08:00:39;;;;;;;35.75;22.42;;;;;;;;;;4990075;28;20264;-73
2022/01/13 08:03:06;;;;;;;36.65;23.25;;;;;;;;;;4989460;28;20082;-73
2022/01/13 08:05:34;;;;;;;38.08;23.08;;;;;;;;;;4989827;28;20042;-73
2022/01/13 08:08:02;;;;;;;33.70;19.73;;;;;;;;;;4990434;28;20113;-72
2022/01/13 08:10:29;;;;;;;32.42;20.75;;;;;;;;;;4989166;28;20073;-72
2022/01/13 08:12:57;;;;;;;36.45;22.90;;;;;;;;;;4990003;28;20072;-73
2022/01/13 08:15:25;;;;;;;33.00;21.27;;;;;;;;;;4988859;28;20574;-72
2022/01/13 08:20:38;;;;;;;36.72;22.83;;;;;;;;;;4987658;28;20042;-73
2022/01/13 08:23:06;;;;;;;38.05;24.27;;;;;;;;;;4989384;28;20065;-73
2022/01/13 08:25:34;;;;;;;36.85;21.70;;;;;;;;;;4988477;28;20042;-73
2022/01/13 08:28:01;;;;;;;40.85;24.83;;;;;;;;;;4993901;28;20478;-73
2022/01/13 08:30:39;;;;;;;35.67;21.60;;;;;;;;;;4991003;28;20277;-73
2022/01/13 08:33:06;;;;;;;34.28;22.15;;;;;;;;;;4993229;28;20038;-73
2022/01/13 08:35:34;;;;;;;37.78;22.67;;;;;;;;;;4993625;28;20073;-73
2022/01/13 08:38:07;;;;;;;33.05;22.48;;;;;;;;;;4976533;28;20410;-72
2022/01/13 08:40:34;;;;;;;35.50;22.85;;;;;;;;;;4991491;28;20076;-72
2022/01/13 08:43:02;;;;;;;35.60;23.13;;;;;;;;;;4992371;28;20062;-72
2022/01/13 08:45:30;;;;;;;34.45;22.92;;;;;;;;;;4993067;28;20038;-72
2022/01/13 08:47:57;;;;;;;36.53;24.33;;;;;;;;;;4992767;28;20471;-72
2022/01/13 08:50:25;;;;;;;35.40;22.88;;;;;;;;;;4992281;28;20046;-71
2022/01/13 08:52:52;;;;;;;33.92;20.40;;;;;;;;;;4992321;28;20090;-72
2022/01/13 08:55:20;;;;;;;37.70;23.05;;;;;;;;;;4992727;28;20537;-72
2022/01/13 08:57:47;;;;;;;36.88;23.60;;;;;;;;;;4992426;28;20046;-73
2022/01/13 09:00:15;;;;;;;41.67;25.67;;;;;;;;;;4990997;28;21664;-72
2022/01/13 09:02:43;;;;;;;39.45;23.55;;;;;;;;;;4988447;28;20088;-73
2022/01/13 09:05:12;;;;;;;35.50;22.38;;;;;;;;;;4990565;28;20050;-73
2022/01/13 09:07:39;;;;;;;34.33;22.85;;;;;;;;;;4991648;28;20070;-73
2022/01/13 09:10:08;;;;;;;42.40;25.45;;;;;;;;;;4991364;28;20085;-72
2022/01/13 09:12:35;;;;;;;38.40;24.95;;;;;;;;;;4990450;28;20042;-71
2022/01/13 09:15:15;;;;;;;42.35;25.20;;;;;;;;;;4990520;28;20045;-74
2022/01/13 09:17:43;;;;;;;36.72;23.25;;;;;;;;;;4990106;28;20042;-72
2022/01/13 09:20:11;;;;;;;42.95;25.65;;;;;;;;;;4992021;28;20121;-71
2022/01/13 09:22:39;;;;;;;44.85;27.52;;;;;;;;;;4988048;28;20042;-72
2022/01/13 09:25:08;;;;;;;44.88;25.98;;;;;;;;;;4991824;28;20111;-72
2022/01/13 09:27:35;;;;;;;36.97;22.92;;;;;;;;;;4986842;28;20069;-71
2022/01/13 09:30:03;;;;;;;41.80;25.75;;;;;;;;;;4990941;28;20045;-72
2022/01/13 09:32:31;;;;;;;48.13;26.92;;;;;;;;;;4993588;28;20506;-72
2022/01/13 09:34:59;;;;;;;39.20;23.08;;;;;;;;;;4993463;28;20042;-72
2022/01/13 09:37:26;;;;;;;42.50;25.63;;;;;;;;;;4992687;28;20093;-72
2022/01/13 09:39:56;;;;;;;44.47;25.23;;;;;;;;;;4991717;28;20077;-72
2022/01/13 09:42:24;;;;;;;45.75;25.83;;;;;;;;;;4988987;28;20042;-72
2022/01/13 09:44:53;;;;;;;43.58;26.35;;;;;;;;;;4990824;28;20152;-72
2022/01/13 09:47:20;;;;;;;44.28;25.38;;;;;;;;;;4992959;28;20042;-72
2022/01/13 09:49:50;;;;;;;45.45;26.77;;;;;;;;;;5007477;28;20069;-72
2022/01/13 09:52:20;;;;;;;37.47;23.05;;;;;;;;;;4991509;28;20133;-72
2022/01/13 09:54:49;;;;;;;41.40;24.15;;;;;;;;;;4991146;28;20073;-72
2022/01/13 09:57:16;;;;;;;45.60;25.60;;;;;;;;;;4991132;28;20127;-72
2022/01/13 09:59:44;;;;;;;51.85;25.48;;;;;;;;;;4991321;28;20070;-72
2022/01/13 10:02:12;;;;;;;48.97;27.40;;;;;;;;;;4990336;28;20038;-72
2022/01/13 10:04:57;;;;;;;47.70;25.85;;;;;;;;;;4993213;28;20117;-71
2022/01/13 10:07:38;;;;;;;44.00;25.55;;;;;;;;;;4991693;28;20506;-74
2022/01/13 10:10:27;;;;;;;47.72;25.85;;;;;;;;;;4980953;28;20037;-73
2022/01/13 10:13:05;;;;;;;41.47;23.85;;;;;;;;;;4991454;28;20092;-73
2022/01/13 10:18:37;;;;;;;39.53;24.23;;;;;;;;;;4990949;28;20073;-73
2022/01/13 10:21:06;;;;;;;42.80;25.85;;;;;;;;;;4991051;28;20042;-73
2022/01/13 10:23:33;;;;;;;45.50;26.13;;;;;;;;;;4988290;28;20072;-72
2022/01/13 10:26:09;;;;;;;46.40;24.73;;;;;;;;;;4990902;28;20038;-72
2022/01/13 10:28:36;;;;;;;47.00;26.70;;;;;;;;;;4990394;28;20118;-72
2022/01/13 10:31:04;;;;;;;49.17;28.45;;;;;;;;;;4989211;28;20122;-72
2022/01/13 10:33:33;;;;;;;49.17;28.70;;;;;;;;;;4989110;28;20046;-72
2022/01/13 10:36:08;;;;;;;49.40;27.10;;;;;;;;;;4971872;28;20097;-72
2022/01/13 10:38:56;;;;;;;47.95;28.10;;;;;;;;;;4985876;28;20122;-72
2022/01/13 10:41:37;;;;;;;48.33;26.83;;;;;;;;;;4995057;28;20112;-71
2022/01/13 10:44:23;;;;;;;42.80;26.40;;;;;;;;;;4995815;28;20042;-72
2022/01/13 10:47:00;;;;;;;43.22;23.58;;;;;;;;;;4998607;28;20503;-73
2022/01/13 10:49:35;;;;;;;46.22;23.52;;;;;;;;;;5003986;28;20066;-71
2022/01/13 10:52:15;;;;;;;51.95;28.45;;;;;;;;;;5003168;28;20042;-72
2022/01/13 10:54:43;;;;;;;52.65;27.65;;;;;;;;;;4979211;28;20391;-72
2022/01/13 10:57:17;;;;;;;48.47;26.67;;;;;;;;;;4996363;28;20077;-72
2022/01/13 10:59:44;;;;;;;44.92;25.27;;;;;;;;;;4993483;28;20038;-72
2022/01/13 11:02:13;;;;;;;54.08;27.40;;;;;;;;;;4989401;28;20509;-72
2022/01/13 11:04:40;;;;;;;49.53;26.55;;;;;;;;;;4990690;28;20101;-72
2022/01/13 11:07:19;;;;;;;47.80;27.63;;;;;;;;;;4990652;28;20096;-72
2022/01/13 11:09:57;;;;;;;46.22;28.33;;;;;;;;;;4989875;28;20031;-72
2022/01/13 11:12:44;;;;;;;44.90;26.70;;;;;;;;;;4990172;28;20066;-72
2022/01/13 11:15:15;;;;;;;50.90;26.20;;;;;;;;;;4989968;28;20069;-72
2022/01/13 11:17:45;;;;;;;43.30;24.40;;;;;;;;;;4989168;28;20143;-72
2022/01/13 11:20:17;;;;;;;43.28;25.63;;;;;;;;;;4988808;28;20340;-72
2022/01/13 11:22:46;;;;;;;44.95;26.65;;;;;;;;;;4986074;28;20122;-72
2022/01/13 11:25:15;;;;;;;45.33;25.65;;;;;;;;;;4988979;28;20039;-72
2022/01/13 11:27:43;;;;;;;48.33;27.85;;;;;;;;;;4987551;28;20522;-72
2022/01/13 11:30:13;;;;;;;48.03;24.55;;;;;;;;;;4986856;28;20042;-72
2022/01/13 11:32:41;;;;;;;41.33;24.10;;;;;;;;;;4986865;28;20133;-72
2022/01/13 11:35:13;;;;;;;48.30;25.95;;;;;;;;;;4987353;28;20053;-72
2022/01/13 11:37:42;;;;;;;48.15;26.45;;;;;;;;;;4986874;28;20085;-72
2022/01/13 11:40:35;;;;;;;50.00;26.10;;;;;;;;;;4986696;28;20093;-72
2022/01/13 11:43:04;;;;;;;43.92;23.83;;;;;;;;;;4967948;28;20069;-72
2022/01/13 11:45:37;;;;;;;50.55;27.33;;;;;;;;;;4987440;28;20058;-72
2022/01/13 11:48:15;;;;;;;39.20;21.70;;;;;;;;;;4987786;28;20128;-71
2022/01/13 11:50:48;;;;;;;41.97;24.50;;;;;;;;;;4987211;28;20062;-72
2022/01/13 11:53:21;;;;;;;46.83;25.95;;;;;;;;;;4971419;28;20070;-72
2022/01/13 11:55:56;;;;;;;47.55;25.95;;;;;;;;;;4987853;28;20046;-72
2022/01/13 11:58:44;;;;;;;51.97;27.50;;;;;;;;;;4988759;28;20042;-72
2022/01/13 12:01:12;;;;;;;47.22;26.33;;;;;;;;;;4989377;28;20577;-72
2022/01/13 12:03:41;;;;;;;54.42;27.98;;;;;;;;;;4989719;28;20049;-72
2022/01/13 12:06:09;;;;;;;47.08;26.40;;;;;;;;;;4990117;28;20038;-72
2022/01/13 12:08:41;;;;;;;54.58;28.35;;;;;;;;;;4990406;28;20194;-72
2022/01/13 12:11:29;;;;;;;46.00;25.20;;;;;;;;;;4990013;28;20121;-72
2022/01/13 12:13:56;;;;;;;55.80;27.50;;;;;;;;;;4990166;28;20133;-72
2022/01/13 12:16:50;;;;;;;44.75;23.83;;;;;;;;;;4972406;28;20077;-72
2022/01/13 12:19:37;;;;;;;52.33;27.48;;;;;;;;;;4987936;28;20086;-73
2022/01/13 12:22:10;;;;;;;47.30;26.77;;;;;;;;;;4989144;28;20093;-72
2022/01/13 12:24:50;;;;;;;46.67;24.88;;;;;;;;;;4988690;28;20047;-72
2022/01/13 12:27:18;;;;;;;53.50;28.23;;;;;;;;;;4977824;28;20034;-71
2022/01/13 12:29:49;;;;;;;49.08;27.67;;;;;;;;;;4962933;28;20045;-72
2022/01/13 12:32:25;;;;;;;52.40;30.20;;;;;;;;;;4983904;28;20050;-72
2022/01/13 12:34:52;;;;;;;52.35;28.15;;;;;;;;;;4986712;28;20348;-72
2022/01/13 12:37:22;;;;;;;53.40;29.02;;;;;;;;;;4987254;28;20532;-71
2022/01/13 12:39:52;;;;;;;55.45;27.70;;;;;;;;;;4981351;28;20478;-71
2022/01/13 12:42:27;;;;;;;51.35;28.70;;;;;;;;;;4983599;28;20129;-72
2022/01/13 12:47:41;;;;;;;49.20;28.73;;;;;;;;;;4987923;28;20038;-71
2022/01/13 12:50:14;;;;;;;51.92;29.98;;;;;;;;;;4985992;28;20042;-72
2022/01/13 12:52:41;;;;;;;54.28;29.73;;;;;;;;;;4987630;28;20069;-72
2022/01/13 12:55:09;;;;;;;55.58;29.98;;;;;;;;;;4988334;28;20085;-73
2022/01/13 12:57:43;;;;;;;52.45;29.42;;;;;;;;;;4987703;28;20054;-73
2022/01/13 13:00:11;;;;;;;53.70;30.02;;;;;;;;;;4978421;28;20548;-72
2022/01/13 13:02:38;;;;;;;47.53;28.20;;;;;;;;;;4983194;28;20070;-72
2022/01/13 13:05:06;;;;;;;59.00;30.50;;;;;;;;;;4983984;28;20088;-72
2022/01/13 13:07:33;;;;;;;58.13;31.90;;;;;;;;;;4986752;28;20081;-73
2022/01/13 13:10:07;;;;;;;50.80;28.88;;;;;;;;;;4985140;28;20046;-73
2022/01/13 13:12:35;;;;;;;53.75;28.65;;;;;;;;;;4968681;28;20117;-73
2022/01/13 13:17:49;;;;;;;52.63;28.85;;;;;;;;;;4987588;28;20038;-72
2022/01/13 13:20:27;;;;;;;49.30;28.83;;;;;;;;;;4990513;28;20034;-72
2022/01/13 13:22:58;;;;;;;57.22;28.05;;;;;;;;;;4993186;28;20038;-73
2022/01/13 13:25:26;;;;;;;45.85;26.95;;;;;;;;;;4990683;28;20546;-73
2022/01/13 13:27:53;;;;;;;52.38;28.80;;;;;;;;;;4992819;28;20039;-73
2022/01/13 13:30:21;;;;;;;53.22;29.30;;;;;;;;;;4972920;28;20515;-72
2022/01/13 13:33:08;;;;;;;53.65;30.80;;;;;;;;;;4991900;28;20053;-73
2022/01/13 13:35:36;;;;;;;58.05;30.23;;;;;;;;;;4992184;28;20066;-73
2022/01/13 13:38:03;;;;;;;58.22;30.55;;;;;;;;;;4991437;28;20043;-74
2022/01/13 13:40:30;;;;;;;58.60;30.08;;;;;;;;;;4992396;28;20571;-73
2022/01/13 13:42:59;;;;;;;57.28;31.65;;;;;;;;;;4990578;28;20516;-72
2022/01/13 13:45:26;;;;;;;61.50;32.60;;;;;;;;;;4991128;28;20092;-73
2022/01/13 13:47:58;;;;;;;53.88;30.45;;;;;;;;;;4990270;28;20045;-73
2022/01/13 13:50:26;;;;;;;48.05;27.77;;;;;;;;;;4988173;28;20477;-72
2022/01/13 13:53:13;;;;;;;52.75;31.02;;;;;;;;;;4985258;28;20041;-72
2022/01/13 13:55:54;;;;;;;56.50;28.92;;;;;;;;;;4987111;28;20514;-72
2022/01/13 13:58:22;;;;;;;53.13;29.98;;;;;;;;;;4990206;28;20041;-71
2022/01/13 14:00:56;;;;;;;49.35;28.40;;;;;;;;;;4987420;28;20092;-72
2022/01/13 14:03:37;;;;;;;55.70;28.58;;;;;;;;;;4989139;28;20042;-71
2022/01/13 14:06:07;;;;;;;55.50;30.15;;;;;;;;;;4988816;28;20342;-72
2022/01/13 14:08:51;;;;;;;52.00;29.52;;;;;;;;;;4985791;28;20049;-73
2022/01/13 14:11:18;;;;;;;53.40;30.30;;;;;;;;;;4998544;28;20141;-71
2022/01/13 14:13:45;;;;;;;54.33;28.60;;;;;;;;;;4979835;28;20295;-71
2022/01/13 14:16:13;;;;;;;58.65;31.00;;;;;;;;;;5001168;28;20082;-73
2022/01/13 14:18:41;;;;;;;55.15;31.38;;;;;;;;;;5002113;28;20388;-72
2022/01/13 14:21:08;;;;;;;54.58;29.48;;;;;;;;;;5003070;28;20058;-72
2022/01/13 14:23:42;;;;;;;57.92;30.40;;;;;;;;;;5000971;28;20081;-73
2022/01/13 14:26:13;;;;;;;43.63;25.63;;;;;;;;;;4997396;28;20041;-71
2022/01/13 14:28:48;;;;;;;39.67;23.92;;;;;;;;;;4988956;28;20475;-72
2022/01/13 14:31:15;;;;;;;52.65;29.13;;;;;;;;;;4989252;28;20042;-72
2022/01/13 14:33:44;;;;;;;46.63;27.08;;;;;;;;;;4982719;28;20072;-72
2022/01/13 14:36:15;;;;;;;51.45;27.38;;;;;;;;;;4985355;28;20101;-72
2022/01/13 14:38:50;;;;;;;43.30;25.50;;;;;;;;;;4991162;28;20054;-72
2022/01/13 14:41:27;;;;;;;46.92;27.17;;;;;;;;;;4990093;28;20056;-73
2022/01/13 14:43:56;;;;;;;46.50;26.13;;;;;;;;;;4976036;28;20038;-72
2022/01/13 14:46:24;;;;;;;50.85;28.15;;;;;;;;;;4990102;28;20447;-72
2022/01/13 14:48:51;;;;;;;47.45;26.25;;;;;;;;;;4983528;28;20134;-72
2022/01/13 14:51:20;;;;;;;54.08;28.27;;;;;;;;;;4988261;28;20562;-72
2022/01/13 14:53:48;;;;;;;50.55;26.65;;;;;;;;;;4981731;28;20137;-72
2022/01/13 14:56:16;;;;;;;41.15;25.80;;;;;;;;;;4981346;28;20439;-72
2022/01/13 14:58:44;;;;;;;45.53;26.63;;;;;;;;;;4988552;28;20042;-73
2022/01/13 15:01:12;;;;;;;48.83;26.98;;;;;;;;;;4986183;28;20038;-72
2022/01/13 15:03:40;;;;;;;52.88;28.92;;;;;;;;;;4983255;28;20046;-73
2022/01/13 15:06:08;;;;;;;44.03;25.52;;;;;;;;;;4987910;28;20042;-73